createdAt,value
2017-11-01T00:09:40.570Z,0.0
2017-11-01T00:20:26.091Z,0.0
2017-11-01T00:30:37.384Z,0.0
2017-11-01T00:40:51.422Z,0.0
2017-11-01T00:51:04.943Z,0.0
2017-11-01T01:01:16.820Z,0.0
2017-11-01T01:12:01.784Z,0.0
2017-11-01T01:22:14.964Z,0.0
2017-11-01T01:32:28.617Z,0.0
2017-11-01T01:42:42.399Z,0.0
2017-11-01T01:52:55.652Z,0.0
2017-11-01T02:03:09.537Z,0.0
2017-11-01T02:13:23.200Z,0.0
2017-11-01T02:24:07.958Z,0.0
2017-11-01T02:34:19.315Z,0.0
2017-11-01T02:44:33.549Z,0.0
2017-11-01T02:54:48.052Z,0.0
2017-11-01T03:05:00.271Z,0.0
2017-11-01T03:15:14.167Z,0.0
2017-11-01T03:25:27.395Z,0.0
2017-11-01T03:36:14.989Z,0.0
2017-11-01T03:46:28.977Z,0.0
2017-11-01T03:57:20.307Z,0.0
2017-11-01T04:08:05.837Z,0.0
2017-11-01T04:18:53.900Z,0.0
2017-11-01T04:29:39.189Z,0.0
2017-11-01T04:39:52.722Z,0.0
2017-11-01T04:50:37.189Z,0.0
2017-11-01T05:01:24.458Z,0.0
2017-11-01T05:11:39.050Z,0.0
2017-11-01T05:21:52.839Z,0.0
2017-11-01T05:32:37.353Z,0.0
2017-11-01T05:42:50.833Z,0.0
2017-11-01T05:53:04.137Z,0.0
2017-11-01T06:03:18.556Z,0.0
2017-11-01T06:13:30.619Z,4.0
2017-11-01T06:23:44.849Z,16.0
2017-11-01T06:33:59.674Z,44.0
2017-11-01T06:44:13.089Z,88.0
2017-11-01T06:55:01.624Z,152.0
2017-11-01T07:05:15.244Z,204.0
2017-11-01T07:15:28.673Z,256.0
2017-11-01T07:25:42.707Z,360.0
2017-11-01T07:36:27.535Z,496.0
2017-11-01T07:47:14.028Z,544.0
2017-11-01T07:57:58.942Z,624.0
2017-11-01T08:08:43.644Z,856.0
2017-11-01T08:19:29.498Z,1152.0
2017-11-01T08:29:43.553Z,1248.0
2017-11-01T08:39:57.881Z,1276.0
2017-11-01T08:50:11.103Z,1200.0
2017-11-01T09:00:25.139Z,1520.0
2017-11-01T09:10:38.534Z,1320.0
2017-11-01T09:20:54.656Z,2612.0
2017-11-01T09:31:08.982Z,2404.0
2017-11-01T09:41:23.291Z,1792.0
2017-11-01T09:51:37.343Z,1936.0
2017-11-01T10:01:48.396Z,2152.0
2017-11-01T10:12:02.711Z,2200.0
2017-11-01T10:22:17.514Z,3196.0
2017-11-01T10:32:31.381Z,3176.0
2017-11-01T10:42:45.213Z,3024.0
2017-11-01T10:52:58.451Z,5700.0
2017-11-01T11:03:44.092Z,2896.0
2017-11-01T11:13:57.451Z,3124.0
2017-11-01T11:24:12.065Z,4448.0
2017-11-01T11:34:27.130Z,3476.0
2017-11-01T11:44:41.413Z,2768.0
2017-11-01T11:54:55.443Z,2548.0
2017-11-01T12:05:10.940Z,3632.0
2017-11-01T12:15:25.079Z,5748.0
2017-11-01T12:26:10.368Z,4744.0
2017-11-01T12:36:24.167Z,4044.0
2017-11-01T12:46:38.125Z,6432.0
2017-11-01T12:56:53.876Z,15776.0
2017-11-01T13:07:08.794Z,13276.0
2017-11-01T13:17:23.078Z,5568.0
2017-11-01T13:27:37.162Z,4316.0
2017-11-01T13:37:52.406Z,5636.0
2017-11-01T13:48:06.494Z,6924.0
2017-11-01T13:58:51.088Z,13052.0
2017-11-01T14:09:04.776Z,5236.0
2017-11-01T14:19:19.201Z,10516.0
2017-11-01T14:29:36.767Z,4648.0
2017-11-01T14:40:02.179Z,2508.0
2017-11-01T14:50:15.364Z,1840.0
2017-11-01T15:00:29.769Z,1116.0
2017-11-01T15:11:14.941Z,1364.0
2017-11-01T15:21:29.551Z,828.0
2017-11-01T15:44:36.406Z,176.0
2017-11-01T15:54:50.742Z,40.0
2017-11-01T16:05:04.668Z,36.0
2017-11-01T16:15:19.039Z,12.0
2017-11-01T16:25:33.264Z,4.0
2017-11-01T16:35:47.715Z,0.0
2017-11-01T16:46:46.655Z,0.0
2017-11-01T16:57:00.572Z,0.0
2017-11-01T17:19:46.392Z,0.0
2017-11-01T17:31:32.340Z,0.0
2017-11-01T17:42:17.956Z,0.0
2017-11-01T17:53:04.759Z,0.0
2017-11-01T18:03:19.834Z,0.0
2017-11-01T18:14:19.082Z,0.0
2017-11-01T18:25:23.462Z,0.0
2017-11-01T18:35:38.755Z,0.0
2017-11-01T18:45:54.661Z,0.0
2017-11-01T18:56:41.299Z,0.0
2017-11-01T19:06:56.486Z,0.0
2017-11-01T19:18:02.405Z,0.0
2017-11-01T19:28:16.814Z,0.0
2017-11-01T19:38:32.319Z,0.0
2017-11-01T19:48:46.446Z,0.0
2017-11-01T19:59:35.579Z,0.0
2017-11-01T20:09:50.003Z,0.0
2017-11-01T20:20:35.542Z,0.0
2017-11-01T20:30:49.609Z,0.0
2017-11-01T20:41:56.871Z,0.0
2017-11-01T20:52:41.361Z,0.0
2017-11-01T21:02:59.908Z,0.0
2017-11-01T21:13:50.764Z,0.0
2017-11-01T21:24:57.733Z,0.0
2017-11-01T21:35:13.968Z,0.0
2017-11-01T21:47:44.921Z,0.0
2017-11-01T21:58:06.112Z,0.0
2017-11-01T22:08:28.176Z,0.0
2017-11-01T22:18:41.310Z,0.0
2017-11-01T22:29:53.604Z,0.0
2017-11-01T22:40:05.188Z,0.0
2017-11-01T23:03:34.106Z,0.0
2017-11-01T23:14:12.764Z,0.0
2017-11-01T23:25:02.545Z,0.0
2017-11-01T23:36:26.937Z,0.0
2017-11-01T23:48:38.552Z,0.0
